Time;durP1;ratioP1;P1;durP2;ratioP2;P2;SDS_P1;SDS_P2;PMS_P1;PMS_P2;Temp;Humidity;BMP_temperature;BMP_pressure;BME280_temperature;BME280_humidity;BME280_pressure;Samples;Min_cycle;Max_cycle;Signal;HPM_P1;HPM_P2
2023/05/31 00:01:13;;;;;;;6.63;2.37;;;;;;;16.30;54.25;101046.97;5047093;28;20333;-70
2023/05/31 00:03:42;;;;;;;5.50;2.43;;;;;;;16.32;54.48;101045.19;5050326;28;20195;-70
2023/05/31 00:06:12;;;;;;;7.73;2.27;;;;;;;16.16;54.95;101051.44;5049560;28;20199;-70
2023/05/31 00:08:39;;;;;;;6.20;2.40;;;;;;;16.18;54.88;101053.22;5034363;28;20286;-71
2023/05/31 00:11:08;;;;;;;4.93;2.20;;;;;;;16.23;54.68;101051.44;5045378;28;20233;-71
2023/05/31 00:13:36;;;;;;;8.97;3.73;;;;;;;16.20;54.72;101039.84;5046749;28;20286;-70
2023/05/31 00:16:02;;;;;;;5.93;2.70;;;;;;;16.08;55.23;101043.41;5054874;28;20198;-70
2023/05/31 00:18:31;;;;;;;8.57;2.37;;;;;;;16.12;55.18;101053.22;5047579;28;20285;-70
2023/05/31 00:20:57;;;;;;;9.57;2.40;;;;;;;15.96;55.85;101052.28;5054313;28;20219;-69
2023/05/31 00:23:24;;;;;;;7.13;2.30;;;;;;;15.98;55.95;101049.59;5052734;28;20572;-70
2023/05/31 00:25:50;;;;;;;6.00;2.33;;;;;;;16.08;55.35;101054.09;5040876;28;20224;-70
2023/05/31 00:28:17;;;;;;;7.00;2.47;;;;;;;15.96;55.85;101040.69;5033897;28;20215;-71
2023/05/31 00:30:43;;;;;;;5.90;2.50;;;;;;;15.90;56.01;101038.91;5050469;28;20201;-70
2023/05/31 00:33:11;;;;;;;8.33;2.40;;;;;;;15.89;56.04;101041.56;5050543;28;20226;-70
2023/05/31 00:35:40;;;;;;;8.30;2.67;;;;;;;15.90;55.97;101036.22;5043848;28;20194;-70
2023/05/31 00:38:07;;;;;;;8.00;2.23;;;;;;;15.85;56.67;101031.78;5041228;28;20226;-70
2023/05/31 00:40:34;;;;;;;5.57;2.60;;;;;;;15.85;56.25;101045.13;5035752;28;20672;-70
2023/05/31 00:43:01;;;;;;;10.33;2.40;;;;;;;15.92;55.99;101042.47;5049912;28;20190;-70
2023/05/31 00:45:28;;;;;;;7.47;2.20;;;;;;;15.91;55.88;101042.47;5044892;28;20662;-70
2023/05/31 00:47:56;;;;;;;8.97;2.40;;;;;;;15.91;56.22;101047.81;5043177;28;20249;-70
2023/05/31 00:50:23;;;;;;;9.90;2.57;;;;;;;15.93;55.98;101044.25;5037403;28;20206;-70
2023/05/31 00:52:51;;;;;;;5.90;2.40;;;;;;;15.84;56.52;101043.34;5044287;28;20225;-70
2023/05/31 00:55:17;;;;;;;9.30;2.70;;;;;;;15.74;57.03;101038.88;5049595;28;20222;-70
2023/05/31 00:57:44;;;;;;;8.93;2.50;;;;;;;15.87;56.58;101041.56;5038131;28;20200;-70
2023/05/31 01:00:11;;;;;;;9.87;2.63;;;;;;;15.84;56.41;101048.69;5049920;28;20246;-69
2023/05/31 01:02:38;;;;;;;8.43;2.63;;;;;;;15.91;56.50;101040.69;5050183;28;20305;-70
2023/05/31 01:05:05;;;;;;;7.63;2.60;;;;;;;15.79;56.80;101039.78;5035243;28;20211;-70
2023/05/31 01:07:32;;;;;;;7.87;2.50;;;;;;;15.81;56.93;101041.56;5048007;28;20205;-69
2023/05/31 01:10:00;;;;;;;9.53;3.07;;;;;;;15.77;57.04;101039.78;5048770;28;20226;-70
2023/05/31 01:12:52;;;;;;;7.37;2.50;;;;;;;15.72;56.90;101025.53;5047916;28;20222;-70
2023/05/31 01:15:22;;;;;;;9.23;2.73;;;;;;;15.88;56.74;101035.34;5047078;28;20248;-70
2023/05/31 01:18:09;;;;;;;8.73;2.23;;;;;;;15.85;56.55;101029.09;5053106;28;20777;-70
2023/05/31 01:20:38;;;;;;;6.17;2.60;;;;;;;15.57;57.79;101031.66;5052852;28;20646;-70
2023/05/31 01:23:40;;;;;;;7.07;2.57;;;;;;;15.68;57.47;101028.19;5041391;28;20278;-70
2023/05/31 01:26:38;;;;;;;6.50;2.40;;;;;;;15.54;57.58;101026.31;5036800;28;20203;-70
2023/05/31 01:29:11;;;;;;;9.00;2.33;;;;;;;15.35;58.67;101030.69;5045931;28;20198;-70
2023/05/31 01:31:40;;;;;;;6.30;2.30;;;;;;;15.14;59.74;101035.91;5052614;28;20214;-70
2023/05/31 01:34:07;;;;;;;5.20;2.30;;;;;;;15.23;59.20;101036.00;5048674;28;20257;-70
2023/05/31 01:36:34;;;;;;;7.50;2.53;;;;;;;15.23;59.32;101035.09;5052546;28;20670;-70
2023/05/31 01:39:03;;;;;;;6.87;2.27;;;;;;;15.22;59.53;101036.00;5051141;28;20201;-70
2023/05/31 01:41:36;;;;;;;6.70;2.93;;;;;;;15.19;59.16;101034.16;5037719;28;20215;-69
2023/05/31 01:44:03;;;;;;;7.00;3.23;;;;;;;15.29;58.77;101037.78;5052652;28;20197;-70
2023/05/31 01:46:30;;;;;;;5.70;2.27;;;;;;;15.44;58.30;101035.19;5052755;28;20195;-70
2023/05/31 01:48:57;;;;;;;6.80;2.47;;;;;;;15.40;58.40;101037.81;5042915;28;20227;-70
2023/05/31 01:51:25;;;;;;;6.00;2.43;;;;;;;15.41;58.26;101043.19;5040364;28;20222;-70
2023/05/31 01:53:51;;;;;;;6.33;2.27;;;;;;;15.16;58.98;101039.50;5049975;28;20717;-70
2023/05/31 01:56:21;;;;;;;6.13;2.13;;;;;;;14.96;60.26;101035.84;5047402;28;20205;-70
2023/05/31 01:58:50;;;;;;;5.17;2.33;;;;;;;14.92;60.45;101040.25;5032793;28;20278;-70
2023/05/31 02:01:17;;;;;;;7.93;2.50;;;;;;;14.93;60.25;101033.16;5046135;28;20228;-70
2023/05/31 02:03:44;;;;;;;5.83;2.50;;;;;;;14.98;60.21;101039.41;5048181;28;20195;-67
2023/05/31 02:06:14;;;;;;;8.17;2.40;;;;;;;14.92;60.39;101037.59;5050961;28;20659;-70
2023/05/31 02:08:43;;;;;;;7.77;2.50;;;;;;;14.99;60.24;101039.41;5045567;28;20579;-70
2023/05/31 02:11:10;;;;;;;6.97;2.47;;;;;;;15.07;59.87;101044.78;5051049;28;20242;-70
2023/05/31 02:13:36;;;;;;;10.27;2.40;;;;;;;15.05;59.99;101046.56;5048773;28;20246;-69
2023/05/31 02:16:06;;;;;;;5.90;2.50;;;;;;;15.01;60.20;101044.75;5052561;28;20195;-70
2023/05/31 02:18:32;;;;;;;6.33;2.40;;;;;;;14.99;60.28;101039.41;5049031;28;20245;-71
2023/05/31 02:20:59;;;;;;;5.97;2.60;;;;;;;14.90;60.14;101043.81;5052320;28;20222;-70
2023/05/31 02:23:26;;;;;;;9.10;2.70;;;;;;;14.78;60.97;101046.38;5048518;28;20726;-70
2023/05/31 02:25:52;;;;;;;7.27;2.70;;;;;;;14.70;61.19;101041.00;5051735;28;20581;-70
2023/05/31 02:28:19;;;;;;;6.70;2.40;;;;;;;14.77;60.85;101041.91;5048075;28;20203;-70
2023/05/31 02:30:58;;;;;;;7.83;2.53;;;;;;;15.03;60.04;101040.31;5045248;28;20207;-70
2023/05/31 02:33:26;;;;;;;5.33;3.00;;;;;;;14.96;59.99;101041.16;5049312;28;20301;-70
2023/05/31 02:35:53;;;;;;;5.77;2.37;;;;;;;14.93;60.40;101046.50;5049583;28;20643;-70
2023/05/31 02:38:20;;;;;;;8.37;2.80;;;;;;;14.93;60.19;101043.81;5047431;28;20199;-70
2023/05/31 02:40:47;;;;;;;5.13;2.53;;;;;;;14.98;59.99;101036.72;5047761;28;20199;-70
2023/05/31 02:43:14;;;;;;;7.47;2.87;;;;;;;15.04;59.77;101044.78;5046209;28;20195;-70
2023/05/31 02:45:41;;;;;;;5.87;2.70;;;;;;;14.99;59.65;101044.75;5049228;28;20191;-70
2023/05/31 02:48:07;;;;;;;4.87;2.20;;;;;;;14.89;60.14;101047.34;5048029;28;20294;-70
2023/05/31 02:50:34;;;;;;;6.40;2.57;;;;;;;14.78;60.49;101038.38;5049886;28;20201;-70
2023/05/31 02:53:03;;;;;;;6.10;2.47;;;;;;;14.78;60.41;101038.38;5049880;28;20210;-70
2023/05/31 02:55:31;;;;;;;6.27;2.37;;;;;;;14.62;61.55;101037.38;5049878;28;20199;-70
2023/05/31 02:57:58;;;;;;;5.97;2.40;;;;;;;14.37;62.72;101029.16;5041255;28;20243;-70
2023/05/31 03:00:25;;;;;;;6.43;2.20;;;;;;;14.34;63.36;101037.13;5043757;28;20286;-70
2023/05/31 03:02:52;;;;;;;6.77;2.70;;;;;;;14.42;62.55;101037.22;5050761;28;20702;-70
2023/05/31 03:05:19;;;;;;;10.17;2.90;;;;;;;14.44;62.83;101037.25;5050895;28;20206;-70
2023/05/31 03:07:46;;;;;;;4.40;2.53;;;;;;;14.27;63.02;101029.97;5043234;28;20235;-70
2023/05/31 03:10:12;;;;;;;6.27;2.17;;;;;;;14.06;63.96;101035.09;5045645;28;20683;-70
2023/05/31 03:12:39;;;;;;;5.93;2.20;;;;;;;14.03;65.00;101035.97;5049497;28;20276;-69
2023/05/31 03:15:06;;;;;;;4.87;2.20;;;;;;;13.93;64.89;101038.50;5042481;28;21626;-70
2023/05/31 03:17:33;;;;;;;6.67;2.50;;;;;;;13.88;65.17;101030.47;5042962;28;20605;-70
2023/05/31 03:20:00;;;;;;;5.57;2.70;;;;;;;14.00;65.16;101043.00;5050716;28;20687;-70
2023/05/31 03:22:26;;;;;;;6.73;2.80;;;;;;;14.28;62.84;101042.41;5050959;28;20226;-70
2023/05/31 03:24:53;;;;;;;5.33;2.23;;;;;;;14.16;63.53;101038.75;5042635;28;20198;-69
2023/05/31 03:27:19;;;;;;;4.63;2.60;;;;;;;14.13;63.87;101042.28;5050706;28;20206;-69
2023/05/31 03:29:46;;;;;;;6.00;2.63;;;;;;;14.20;63.10;101043.22;5050609;28;20239;-69
2023/05/31 03:32:12;;;;;;;10.10;2.30;;;;;;;14.09;63.76;101043.13;5048802;28;20215;-69
2023/05/31 03:34:39;;;;;;;4.67;2.33;;;;;;;14.33;62.27;101040.66;5042990;28;20251;-70
2023/05/31 03:37:05;;;;;;;4.43;2.70;;;;;;;14.33;62.76;101046.00;5041590;28;20570;-70
2023/05/31 03:39:31;;;;;;;7.83;2.40;;;;;;;14.41;62.23;101048.75;5039917;28;20277;-70
2023/05/31 03:42:01;;;;;;;5.37;2.47;;;;;;;14.45;62.02;101055.03;5046958;28;20703;-69
2023/05/31 03:44:27;;;;;;;4.23;2.33;;;;;;;14.56;61.78;101045.34;5050132;28;20739;-70
2023/05/31 03:46:53;;;;;;;8.27;2.60;;;;;;;14.63;61.00;101053.38;5049980;28;20230;-70
2023/05/31 03:49:20;;;;;;;4.23;2.17;;;;;;;14.74;61.23;101054.34;5046281;28;20237;-70
2023/05/31 03:51:46;;;;;;;6.00;2.13;;;;;;;14.94;59.89;101046.50;5044873;28;20218;-69
2023/05/31 03:54:13;;;;;;;4.73;2.40;;;;;;;15.09;59.29;101053.69;5047153;28;20636;-69
2023/05/31 03:56:39;;;;;;;7.13;2.47;;;;;;;15.14;59.17;101051.94;5050266;28;20190;-69
2023/05/31 03:59:06;;;;;;;8.10;2.63;;;;;;;15.01;59.49;101045.66;5040203;28;20218;-68
2023/05/31 04:01:33;;;;;;;6.60;2.83;;;;;;;15.15;59.00;101052.81;5048770;28;20222;-70
2023/05/31 04:03:59;;;;;;;5.93;2.50;;;;;;;15.07;58.95;101052.78;5046095;28;20198;-69
2023/05/31 04:06:27;;;;;;;5.77;2.37;;;;;;;15.15;58.98;101051.03;5049589;28;20575;-67
2023/05/31 04:08:53;;;;;;;7.87;2.57;;;;;;;15.23;58.76;101060.00;5039318;28;20196;-69
2023/05/31 04:11:20;;;;;;;5.97;2.30;;;;;;;15.23;58.63;101054.66;5042234;28;20276;-70
2023/05/31 04:13:46;;;;;;;5.97;2.30;;;;;;;15.27;58.80;101060.91;5046630;28;20298;-68
2023/05/31 04:16:13;;;;;;;5.40;2.23;;;;;;;15.19;58.50;101057.28;5045799;28;20199;-69
2023/05/31 04:18:39;;;;;;;7.00;2.50;;;;;;;15.32;57.87;101059.16;5050036;28;20199;-70
2023/05/31 04:21:07;;;;;;;4.93;2.33;;;;;;;15.34;57.44;101057.38;5049919;28;20231;-69
2023/05/31 04:23:34;;;;;;;6.60;2.37;;;;;;;15.48;57.29;101069.00;5049962;28;20278;-69
2023/05/31 04:26:02;;;;;;;7.17;2.63;;;;;;;15.57;56.51;101058.34;5044904;28;20218;-69
2023/05/31 04:28:29;;;;;;;4.73;2.33;;;;;;;15.63;56.57;101052.22;5049227;28;20191;-70
2023/05/31 04:30:56;;;;;;;8.03;2.70;;;;;;;15.66;56.07;101054.88;5046767;28;20306;-69
2023/05/31 04:33:23;;;;;;;8.63;2.63;;;;;;;15.66;56.08;101061.13;5050938;28;20227;-70
2023/05/31 04:35:50;;;;;;;5.50;2.23;;;;;;;15.68;55.67;101062.91;5046425;28;20206;-69
2023/05/31 04:38:18;;;;;;;5.40;2.43;;;;;;;15.73;55.63;101066.47;5053984;28;20294;-70
2023/05/31 04:40:44;;;;;;;6.63;2.73;;;;;;;15.83;55.27;101063.81;5047085;28;20198;-70
2023/05/31 04:43:10;;;;;;;7.93;2.80;;;;;;;15.89;54.88;101065.63;5049291;28;20249;-70
2023/05/31 04:45:37;;;;;;;7.77;2.50;;;;;;;15.89;55.61;101069.19;5053986;28;20227;-70
2023/05/31 04:48:04;;;;;;;6.30;2.60;;;;;;;16.00;54.78;101063.84;5053731;28;20202;-70
2023/05/31 04:50:31;;;;;;;6.63;2.60;;;;;;;16.10;53.84;101064.78;5053818;28;20195;-69
2023/05/31 04:52:57;;;;;;;3.63;2.30;;;;;;;16.10;53.98;101059.44;5047714;28;20278;-70
2023/05/31 04:55:24;;;;;;;9.00;2.70;;;;;;;16.17;53.95;101055.88;5047811;28;20740;-70
2023/05/31 04:57:50;;;;;;;8.27;2.70;;;;;;;16.20;54.17;101058.56;5050033;28;20195;-68
2023/05/31 05:00:19;;;;;;;4.67;2.60;;;;;;;16.35;52.87;101068.34;5045051;28;20210;-70
2023/05/31 05:02:45;;;;;;;6.47;2.30;;;;;;;16.37;52.73;101061.22;5087342;22;20218;-70
2023/05/31 05:05:13;;;;;;;5.83;2.33;;;;;;;16.41;53.00;101066.59;5072562;28;20203;-70
2023/05/31 05:07:39;;;;;;;7.87;2.23;;;;;;;16.47;52.66;101076.41;5073429;28;20230;-70
2023/05/31 05:10:06;;;;;;;7.07;2.70;;;;;;;16.53;52.68;101071.94;5070502;28;20210;-72
2023/05/31 05:12:32;;;;;;;8.63;3.03;;;;;;;16.58;52.34;101072.84;5073032;28;20218;-70
2023/05/31 05:14:58;;;;;;;5.93;2.40;;;;;;;16.65;52.36;101073.72;5068091;28;20218;-69
2023/05/31 05:17:25;;;;;;;6.53;2.30;;;;;;;16.67;52.41;101077.31;5073150;28;20203;-70
2023/05/31 05:19:51;;;;;;;5.03;2.07;;;;;;;16.71;52.18;101080.88;5066800;28;20201;-70
2023/05/31 05:22:18;;;;;;;6.77;2.30;;;;;;;16.75;52.37;101083.53;5072482;28;20914;-69
2023/05/31 05:24:44;;;;;;;8.37;2.23;;;;;;;16.74;52.69;101087.13;5072922;28;20206;-70
2023/05/31 05:27:11;;;;;;;7.10;2.60;;;;;;;16.80;52.68;101081.75;5070331;28;20194;-70
2023/05/31 05:29:37;;;;;;;7.90;2.43;;;;;;;16.79;53.10;101076.41;5068195;28;20273;-70
2023/05/31 05:32:06;;;;;;;6.60;2.40;;;;;;;16.84;53.00;101083.56;5068449;28;20229;-69
2023/05/31 05:34:33;;;;;;;7.17;2.30;;;;;;;16.93;52.01;101082.66;5071804;28;20297;-69
2023/05/31 05:37:00;;;;;;;5.10;2.37;;;;;;;16.99;51.93;101087.09;5069134;28;20621;-71
2023/05/31 05:39:26;;;;;;;8.33;2.60;;;;;;;17.08;51.53;101089.75;5072501;28;20230;-69
2023/05/31 05:41:52;;;;;;;6.43;2.43;;;;;;;17.53;50.01;101086.94;5070166;28;20214;-69
2023/05/31 05:44:19;;;;;;;7.27;2.57;;;;;;;17.76;48.49;101092.25;5068386;28;20779;-67
2023/05/31 05:46:45;;;;;;;7.17;2.60;;;;;;;17.95;48.02;101082.31;5064904;28;20200;-72
2023/05/31 05:49:12;;;;;;;5.73;2.40;;;;;;;18.60;45.87;101094.38;5072652;28;20250;-70
2023/05/31 05:51:39;;;;;;;8.63;2.53;;;;;;;19.19;43.95;101092.94;5072765;28;20400;-70
2023/05/31 05:54:08;;;;;;;3.83;2.10;;;;;;;18.99;43.25;101108.38;5064065;28;20660;-72
2023/05/31 05:56:34;;;;;;;3.77;2.10;;;;;;;18.64;43.97;101100.63;5065192;28;20294;-70
2023/05/31 05:59:01;;;;;;;7.10;2.33;;;;;;;18.63;44.75;101099.75;5069203;28;20285;-69
2023/05/31 06:01:27;;;;;;;3.80;2.20;;;;;;;18.67;43.85;101109.56;5062168;28;20666;-69
2023/05/31 06:03:54;;;;;;;6.20;2.40;;;;;;;18.43;43.81;101099.00;5071983;28;20186;-69
2023/05/31 06:06:21;;;;;;;3.97;2.20;;;;;;;18.30;44.83;101091.91;5072134;28;20198;-70
2023/05/31 06:08:47;;;;;;;8.67;2.40;;;;;;;18.25;45.03;101101.78;5063709;28;20196;-70
2023/05/31 06:11:18;;;;;;;5.40;2.40;;;;;;;18.29;44.40;101095.50;5067212;28;20214;-70
2023/05/31 06:13:45;;;;;;;6.33;2.27;;;;;;;18.29;44.99;101092.81;5058154;28;20301;-69
2023/05/31 06:16:13;;;;;;;5.40;2.17;;;;;;;18.37;44.43;101099.00;5066800;28;20199;-70
2023/05/31 06:18:40;;;;;;;4.30;2.20;;;;;;;18.55;43.70;101106.06;5062981;28;20284;-70
2023/05/31 06:21:06;;;;;;;6.00;2.30;;;;;;;18.70;44.11;101105.94;5071559;28;20224;-68
2023/05/31 06:23:34;;;;;;;4.73;2.10;;;;;;;18.72;43.19;101099.66;5071645;28;20658;-69
2023/05/31 06:26:00;;;;;;;4.47;2.23;;;;;;;18.69;43.40;101113.13;5060327;28;20197;-70
2023/05/31 06:28:26;;;;;;;3.80;2.00;;;;;;;18.66;42.77;101110.47;5055499;28;20194;-69
2023/05/31 06:30:53;;;;;;;5.63;2.17;;;;;;;18.66;43.74;101105.09;5071422;28;20190;-70
2023/05/31 06:33:19;;;;;;;3.23;2.10;;;;;;;18.68;43.54;101110.44;5067089;28;20198;-70
2023/05/31 06:35:46;;;;;;;4.93;2.50;;;;;;;18.72;43.05;101106.81;5067969;28;20673;-70
2023/05/31 06:38:16;;;;;;;5.33;2.33;;;;;;;18.79;43.48;101113.91;5071350;28;20273;-70
2023/05/31 06:40:43;;;;;;;3.80;2.27;;;;;;;19.06;43.08;101107.41;5069251;28;20284;-70
2023/05/31 06:43:10;;;;;;;6.07;2.40;;;;;;;19.25;42.40;101111.72;5066538;28;20232;-70
2023/05/31 06:45:41;;;;;;;8.83;2.20;;;;;;;19.15;41.34;101109.09;5071651;28;20199;-71
2023/05/31 06:48:09;;;;;;;8.13;2.70;;;;;;;19.09;41.53;101108.28;5071291;28;20706;-70
2023/05/31 06:50:35;;;;;;;9.93;2.60;;;;;;;19.23;41.96;101115.31;5071268;28;20259;-71
2023/05/31 06:53:01;;;;;;;6.73;2.67;;;;;;;19.24;41.85;101111.72;5068374;28;20217;-71
2023/05/31 06:55:28;;;;;;;8.43;2.77;;;;;;;19.36;41.40;101119.66;5066523;28;20214;-70
2023/05/31 06:57:54;;;;;;;6.07;2.40;;;;;;;19.52;41.45;101106.91;5066142;28;20205;-70
2023/05/31 07:00:21;;;;;;;3.20;2.17;;;;;;;19.59;40.84;101112.22;5071172;28;20198;-70
2023/05/31 07:02:47;;;;;;;7.63;2.50;;;;;;;19.84;40.48;101106.56;5067339;28;20226;-70
2023/05/31 07:05:14;;;;;;;11.27;2.50;;;;;;;20.41;38.61;101103.97;5071209;28;20186;-71
2023/05/31 07:07:41;;;;;;;10.93;2.50;;;;;;;21.99;35.39;101111.78;5067019;28;20198;-69
2023/05/31 07:10:08;;;;;;;7.03;2.43;;;;;;;23.75;32.42;101110.97;5057782;28;20655;-70
2023/05/31 07:12:34;;;;;;;13.13;2.80;;;;;;;25.50;29.55;101101.59;5070398;28;20702;-70
2023/05/31 07:15:01;;;;;;;8.07;2.53;;;;;;;27.02;26.96;101105.56;5065592;28;20620;-71
2023/05/31 07:17:29;;;;;;;14.85;2.60;;;;;;;27.73;25.61;101105.09;5071965;28;20225;-70
2023/05/31 07:19:56;;;;;;;7.90;2.67;;;;;;;27.97;25.14;101097.59;5066806;28;20692;-70
2023/05/31 07:22:22;;;;;;;10.60;2.80;;;;;;;29.10;24.15;101102.03;5062475;28;20724;-70
2023/05/31 07:24:49;;;;;;;11.35;2.70;;;;;;;29.25;22.92;101093.06;5070420;28;20222;-70
2023/05/31 07:27:15;;;;;;;7.18;2.28;;;;;;;27.46;24.17;101101.75;5070577;28;20194;-70
2023/05/31 07:29:42;;;;;;;10.20;2.05;;;;;;;27.10;25.33;101087.94;5067159;28;20198;-70
2023/05/31 07:32:08;;;;;;;15.95;3.10;;;;;;;27.28;25.14;101091.72;5070113;28;20602;-70
2023/05/31 07:34:35;;;;;;;13.23;2.72;;;;;;;27.67;25.14;101086.31;5060766;28;20214;-71
2023/05/31 07:37:01;;;;;;;5.03;2.13;;;;;;;27.59;25.05;101084.84;5065323;28;20203;-69
2023/05/31 07:39:28;;;;;;;6.85;2.30;;;;;;;27.79;25.02;101073.97;5061814;28;20198;-70
2023/05/31 07:41:55;;;;;;;3.88;2.00;;;;;;;26.83;25.16;101098.16;5070357;28;20226;-71
2023/05/31 07:44:22;;;;;;;8.32;2.40;;;;;;;26.84;25.90;101090.91;5061030;28;20190;-71
2023/05/31 07:46:48;;;;;;;13.55;2.58;;;;;;;27.25;25.66;101088.25;5062240;28;20614;-70
2023/05/31 07:49:14;;;;;;;9.43;2.50;;;;;;;28.15;24.90;101075.91;5064906;28;20295;-71
2023/05/31 07:51:41;;;;;;;5.40;2.33;;;;;;;27.86;25.38;101080.88;5057810;28;20214;-72
2023/05/31 07:54:08;;;;;;;6.15;2.38;;;;;;;28.40;23.71;101082.81;5061174;28;20211;-70
2023/05/31 07:56:34;;;;;;;5.93;2.45;;;;;;;28.59;24.17;101077.34;5063310;28;20286;-69
2023/05/31 07:59:00;;;;;;;8.00;2.20;;;;;;;28.98;23.49;101077.16;5057951;28;20194;-70
2023/05/31 08:01:28;;;;;;;14.18;2.47;;;;;;;28.21;24.59;101075.59;5064398;28;20316;-73
2023/05/31 08:03:55;;;;;;;6.28;2.10;;;;;;;28.22;24.09;101071.91;5062617;28;20192;-70
2023/05/31 08:06:22;;;;;;;3.17;2.00;;;;;;;27.34;25.32;101072.38;5069814;28;20436;-71
2023/05/31 08:08:48;;;;;;;7.78;2.38;;;;;;;27.12;25.70;101077.00;5060131;28;20199;-71
2023/05/31 08:11:15;;;;;;;4.22;2.30;;;;;;;26.82;25.98;101076.50;5056188;28;20213;-70
2023/05/31 08:13:41;;;;;;;5.13;2.38;;;;;;;25.64;27.25;101079.41;5061355;28;20383;-70
2023/05/31 08:16:08;;;;;;;5.55;2.58;;;;;;;24.73;28.79;101076.28;5069871;28;20213;-72
2023/05/31 08:18:34;;;;;;;5.45;2.20;;;;;;;24.07;30.26;101064.00;5062198;28;20203;-70
2023/05/31 08:21:01;;;;;;;7.75;2.47;;;;;;;23.67;31.13;101064.34;5057483;28;20206;-71
2023/05/31 08:23:28;;;;;;;7.35;2.67;;;;;;;23.71;30.51;101058.78;5069212;28;20247;-73
2023/05/31 08:25:54;;;;;;;6.28;2.40;;;;;;;23.13;32.44;101071.22;5062326;28;20274;-72
2023/05/31 08:28:21;;;;;;;9.05;2.50;;;;;;;23.24;32.92;101073.66;5055825;28;20654;-70
2023/05/31 08:30:48;;;;;;;6.65;2.47;;;;;;;23.40;32.38;101072.28;5069773;28;20258;-70
2023/05/31 08:33:15;;;;;;;8.85;2.60;;;;;;;23.29;32.43;101074.41;5067065;28;20606;-71
2023/05/31 08:35:41;;;;;;;5.43;2.17;;;;;;;23.06;32.91;101072.34;5065593;28;20214;-68
2023/05/31 08:38:08;;;;;;;6.20;2.30;;;;;;;23.08;33.14;101069.59;5064560;28;20194;-68
2023/05/31 08:40:37;;;;;;;7.65;2.53;;;;;;;23.08;33.46;101065.06;5069476;28;20552;-68
2023/05/31 08:43:15;;;;;;;5.95;2.35;;;;;;;23.07;33.54;101070.50;5065392;28;21051;-68
2023/05/31 08:45:43;;;;;;;6.55;2.70;;;;;;;23.01;33.88;101059.88;5057445;28;20252;-68
2023/05/31 08:48:17;;;;;;;11.77;2.38;;;;;;;23.17;33.26;101065.75;5067201;28;20233;-69
2023/05/31 08:50:45;;;;;;;8.10;2.53;;;;;;;23.03;33.41;101069.72;5069445;28;20215;-68
2023/05/31 08:53:15;;;;;;;11.48;2.40;;;;;;;22.68;33.65;101064.31;5069108;28;20226;-68
2023/05/31 08:55:44;;;;;;;8.02;2.22;;;;;;;22.65;33.40;101067.97;5060752;28;20214;-70
2023/05/31 08:58:11;;;;;;;3.78;2.25;;;;;;;22.61;33.32;101065.41;5067430;28;20203;-70
2023/05/31 09:00:37;;;;;;;4.55;2.10;;;;;;;22.28;33.67;101064.41;5064032;28;20566;-70
2023/05/31 09:03:09;;;;;;;4.07;2.38;;;;;;;22.15;34.15;101074.63;5062954;28;20226;-70
2023/05/31 09:05:35;;;;;;;6.28;2.17;;;;;;;22.29;34.64;101052.69;5060556;28;20198;-70
2023/05/31 09:08:02;;;;;;;6.97;2.53;;;;;;;22.57;34.17;101056.50;5069034;28;20672;-70
2023/05/31 09:10:29;;;;;;;7.22;2.75;;;;;;;22.46;33.50;101067.56;5054143;28;20474;-70
2023/05/31 09:12:57;;;;;;;8.05;2.70;;;;;;;22.36;33.24;101057.91;5055542;28;20279;-70
2023/05/31 09:15:25;;;;;;;7.38;2.60;;;;;;;22.45;33.47;101062.22;5068943;28;20221;-71
2023/05/31 09:17:55;;;;;;;7.53;2.25;;;;;;;22.52;33.39;101051.22;5069514;28;20194;-70
2023/05/31 09:20:30;;;;;;;4.80;2.00;;;;;;;22.35;33.46;101060.63;5071555;28;20230;-70
2023/05/31 09:23:01;;;;;;;7.35;2.28;;;;;;;22.55;33.67;101052.06;5060620;28;20259;-70
2023/05/31 09:25:41;;;;;;;8.90;2.70;;;;;;;22.98;34.22;101046.47;5072064;28;20297;-70
2023/05/31 09:28:08;;;;;;;8.48;2.03;;;;;;;22.81;34.17;101044.19;5065091;28;20194;-72
2023/05/31 09:30:34;;;;;;;6.45;2.42;;;;;;;22.97;33.46;101052.78;5062652;28;20194;-71
2023/05/31 09:33:01;;;;;;;4.72;1.90;;;;;;;22.65;32.88;101048.19;5072812;28;20740;-70
2023/05/31 09:35:27;;;;;;;4.30;2.05;;;;;;;22.80;33.59;101037.91;5072657;28;20592;-70
2023/05/31 09:37:54;;;;;;;4.28;2.10;;;;;;;23.16;33.25;101024.31;5073199;28;20198;-70
2023/05/31 09:40:24;;;;;;;4.82;2.25;;;;;;;;;;5063904;28;20373;-69
2023/05/31 09:42:53;;;;;;;6.40;2.28;;;;;;;23.24;33.20;101032.22;5072462;28;20222;-68
2023/05/31 09:45:21;;;;;;;4.88;2.50;;;;;;;23.42;32.42;101010.06;5066888;28;20198;-70
2023/05/31 09:47:48;;;;;;;5.68;2.97;;;;;;;23.47;32.23;101018.03;5072516;28;20198;-70
2023/05/31 09:50:16;;;;;;;5.90;2.95;;;;;;;23.68;31.82;101022.84;5061285;28;20205;-70
2023/05/31 09:52:44;;;;;;;5.78;3.05;;;;;;;23.49;31.93;101017.06;5060898;28;20230;-70
2023/05/31 09:55:16;;;;;;;3.08;2.10;;;;;;;23.37;32.29;101007.50;5059233;28;20228;-70
2023/05/31 09:57:44;;;;;;;4.80;2.15;;;;;;;23.20;32.53;101009.78;5066800;28;20577;-70
2023/05/31 10:00:17;;;;;;;4.47;2.33;;;;;;;23.40;32.88;101003.81;5069408;28;20226;-70
2023/05/31 10:02:54;;;;;;;5.35;2.50;;;;;;;23.29;32.75;101008.66;5071818;28;20308;-71
2023/05/31 10:05:21;;;;;;;5.28;2.10;;;;;;;23.47;32.66;101001.81;5071861;28;20204;-70
2023/05/31 10:07:49;;;;;;;8.10;2.60;;;;;;;23.70;32.37;100996.63;5061092;28;20190;-71
2023/05/31 10:10:22;;;;;;;7.53;2.35;;;;;;;24.03;32.16;101002.81;5062845;28;20616;-70
2023/05/31 10:12:57;;;;;;;7.13;2.08;;;;;;;24.31;29.35;101013.63;5071854;28;20332;-71
2023/05/31 10:15:26;;;;;;;5.53;2.03;;;;;;;24.23;29.41;101004.84;5071704;28;20221;-70
2023/05/31 10:18:16;;;;;;;6.70;2.20;;;;;;;23.87;29.19;101002.38;5060941;28;20196;-70
2023/05/31 10:20:51;;;;;;;9.02;2.53;;;;;;;24.01;29.98;100993.81;5058165;28;20680;-70
2023/05/31 10:23:22;;;;;;;3.75;2.10;;;;;;;23.99;29.69;101001.09;5066342;28;20566;-70
2023/05/31 10:25:59;;;;;;;4.82;1.92;;;;;;;23.73;30.48;101008.25;5071962;28;20187;-69
2023/05/31 10:28:28;;;;;;;8.82;1.98;;;;;;;24.02;30.25;101003.75;5070999;28;20194;-71
2023/05/31 10:30:57;;;;;;;8.10;2.08;;;;;;;24.16;29.00;101008.69;5071053;28;20289;-70
2023/05/31 10:33:30;;;;;;;5.63;2.00;;;;;;;24.20;29.22;101004.94;5062749;28;20293;-70
2023/05/31 10:36:00;;;;;;;6.32;2.40;;;;;;;24.30;28.64;100995.63;5059036;28;20227;-70
2023/05/31 10:38:45;;;;;;;4.35;2.00;;;;;;;24.21;27.73;101009.41;5070690;28;20670;-70
2023/05/31 10:41:18;;;;;;;4.65;2.17;;;;;;;24.26;28.52;101002.03;5071612;28;20222;-70
2023/05/31 10:44:02;;;;;;;5.05;1.80;;;;;;;24.15;28.61;100987.97;5056271;28;20599;-70
2023/05/31 10:46:34;;;;;;;3.55;2.35;;;;;;;24.18;28.29;100982.47;5048976;28;20195;-70
2023/05/31 10:49:05;;;;;;;3.90;2.17;;;;;;;24.53;28.13;100981.31;5041695;28;20199;-72
2023/05/31 10:51:38;;;;;;;3.83;1.85;;;;;;;24.72;28.18;100967.97;5049825;28;20241;-70
2023/05/31 10:54:05;;;;;;;5.97;2.20;;;;;;;24.50;28.20;100966.03;5043487;28;20202;-71
2023/05/31 10:56:32;;;;;;;7.05;2.00;;;;;;;24.78;28.18;100965.94;5055223;28;20218;-70
2023/05/31 10:58:58;;;;;;;4.05;1.98;;;;;;;25.02;28.42;100974.16;5071307;28;20622;-68
2023/05/31 11:01:28;;;;;;;3.53;1.90;;;;;;;24.75;28.02;100960.63;5089179;22;20222;-69
2023/05/31 11:03:57;;;;;;;5.18;1.92;;;;;;;24.86;28.31;100969.28;5000859;28;20705;-66
2023/05/31 11:06:27;;;;;;;3.35;1.60;;;;;;;24.84;27.91;100965.75;5001980;28;20204;-66
2023/05/31 11:09:11;;;;;;;2.92;1.98;;;;;;;25.03;28.34;100959.66;5002010;28;20203;-68
2023/05/31 11:11:40;;;;;;;4.65;2.17;;;;;;;25.09;27.63;100965.72;4983240;28;20219;-67
2023/05/31 11:14:09;;;;;;;3.33;1.90;;;;;;;25.13;28.00;100952.94;5010768;28;20248;-68
2023/05/31 11:16:48;;;;;;;5.10;1.90;;;;;;;25.03;26.95;100954.25;5011269;28;20224;-67
2023/05/31 11:19:17;;;;;;;5.10;2.10;;;;;;;24.79;27.94;100961.41;5001666;28;20208;-68
2023/05/31 11:21:47;;;;;;;5.38;2.00;;;;;;;24.76;28.05;100954.25;5010653;28;20247;-67
2023/05/31 11:24:53;;;;;;;3.80;1.77;;;;;;;24.64;27.40;100949.28;5003943;28;20255;-67
2023/05/31 11:27:34;;;;;;;2.58;1.85;;;;;;;24.90;28.27;100943.84;4987902;28;20264;-67
2023/05/31 11:30:01;;;;;;;4.43;2.20;;;;;;;24.82;27.30;100945.94;4988570;28;20227;-69